createdAt,value
2019-05-02T00:01:04.019Z,21.00
2019-05-02T00:03:35.875Z,22.70
2019-05-02T00:06:07.575Z,22.63
2019-05-02T00:08:37.747Z,22.53
2019-05-02T00:11:09.454Z,23.60
2019-05-02T00:13:38.977Z,23.53
2019-05-02T00:16:09.007Z,24.27
2019-05-02T00:18:40.153Z,25.13
2019-05-02T00:21:09.970Z,23.37
2019-05-02T00:23:39.491Z,21.50
2019-05-02T00:26:08.998Z,23.83
2019-05-02T00:28:38.644Z,23.40
2019-05-02T00:31:11.646Z,24.00
2019-05-02T00:33:39.322Z,26.27
2019-05-02T00:36:08.839Z,23.70
2019-05-02T00:38:39.830Z,28.30
2019-05-02T00:41:09.535Z,26.13
2019-05-02T00:43:39.010Z,25.30
2019-05-02T00:46:08.555Z,25.97
2019-05-02T00:48:45.808Z,25.30
2019-05-02T00:51:15.318Z,25.73
2019-05-02T00:53:48.288Z,25.10
2019-05-02T00:56:16.349Z,24.23
2019-05-02T00:58:45.834Z,26.83
2019-05-02T01:01:34.446Z,27.20
2019-05-02T01:04:10.017Z,26.03
2019-05-02T01:06:39.525Z,26.80
2019-05-02T01:09:10.874Z,28.17
2019-05-02T01:11:42.082Z,29.03
2019-05-02T01:14:11.574Z,29.97
2019-05-02T01:16:41.062Z,28.37
2019-05-02T01:19:12.247Z,28.00
2019-05-02T01:21:42.150Z,28.27
2019-05-02T01:24:11.655Z,28.67
2019-05-02T01:26:46.110Z,28.53
2019-05-02T01:29:37.965Z,28.30
2019-05-02T01:32:14.594Z,28.57
2019-05-02T01:34:54.507Z,29.00
2019-05-02T01:37:42.362Z,30.40
2019-05-02T01:40:13.052Z,28.47
2019-05-02T01:42:44.448Z,27.43
2019-05-02T01:45:15.095Z,31.60
2019-05-02T01:47:44.582Z,31.43
2019-05-02T01:50:14.315Z,30.33
2019-05-02T01:52:43.897Z,31.03
2019-05-02T01:55:16.961Z,29.20
2019-05-02T01:57:44.928Z,29.80
2019-05-02T02:00:15.807Z,31.73
2019-05-02T02:02:45.322Z,29.27
2019-05-02T02:05:14.967Z,31.00
2019-05-02T02:07:44.472Z,30.77
2019-05-02T02:10:15.029Z,30.33
2019-05-02T02:13:02.925Z,29.60
2019-05-02T02:15:16.729Z,30.87
2019-05-02T02:17:46.861Z,28.87
2019-05-02T02:20:19.282Z,29.80
2019-05-02T02:22:55.860Z,30.03
2019-05-02T02:25:51.794Z,30.40
2019-05-02T02:28:21.652Z,29.00
2019-05-02T02:30:51.154Z,28.20
2019-05-02T02:33:20.677Z,28.83
2019-05-02T02:35:52.022Z,29.03
2019-05-02T02:38:26.725Z,29.77
2019-05-02T02:40:52.669Z,29.07
2019-05-02T02:43:34.062Z,29.30
2019-05-02T02:46:11.799Z,30.87
2019-05-02T02:48:42.848Z,31.70
2019-05-02T02:51:22.192Z,31.53
2019-05-02T02:53:43.971Z,29.83
2019-05-02T02:56:13.464Z,30.90
2019-05-02T02:58:46.004Z,30.30
2019-05-02T03:01:14.644Z,30.10
2019-05-02T03:03:45.675Z,28.40
2019-05-02T03:06:15.163Z,29.63
2019-05-02T03:08:48.720Z,28.37
2019-05-02T03:11:23.848Z,29.00
2019-05-02T03:14:06.064Z,30.50
2019-05-02T03:16:30.796Z,28.90
2019-05-02T03:19:00.433Z,30.83
2019-05-02T03:21:30.354Z,28.30
2019-05-02T03:24:03.475Z,28.17
2019-05-02T03:26:31.362Z,28.37
2019-05-02T03:29:01.018Z,31.20
2019-05-02T03:31:31.410Z,27.40
2019-05-02T03:34:01.663Z,26.67
2019-05-02T03:36:36.596Z,27.57
2019-05-02T03:39:13.420Z,26.80
2019-05-02T03:41:33.988Z,27.17
2019-05-02T03:44:11.210Z,27.60
2019-05-02T03:46:35.564Z,26.30
2019-05-02T03:49:07.399Z,29.07
2019-05-02T03:51:36.629Z,29.17
2019-05-02T03:54:10.002Z,27.70
2019-05-02T03:56:44.469Z,28.57
2019-05-02T03:59:09.782Z,28.63
2019-05-02T04:01:41.304Z,29.60
2019-05-02T04:04:14.209Z,29.20
2019-05-02T04:06:42.954Z,27.50
2019-05-02T04:09:39.069Z,28.40
2019-05-02T04:12:11.553Z,28.27
2019-05-02T04:14:39.414Z,26.10
2019-05-02T04:17:11.076Z,28.77
2019-05-02T04:19:40.766Z,28.67
2019-05-02T04:22:11.933Z,29.90
2019-05-02T04:24:47.673Z,28.87
2019-05-02T04:27:14.121Z,29.17
2019-05-02T04:29:43.679Z,27.63
2019-05-02T04:32:14.543Z,26.37
2019-05-02T04:34:48.868Z,30.30
2019-05-02T04:37:15.472Z,27.73
2019-05-02T04:39:44.977Z,27.87
2019-05-02T04:42:19.455Z,28.13
2019-05-02T04:45:08.853Z,28.97
2019-05-02T04:47:21.495Z,26.93
2019-05-02T04:49:49.079Z,28.67
2019-05-02T04:52:21.159Z,25.40
2019-05-02T04:54:50.760Z,27.23
2019-05-02T04:57:20.304Z,27.90
2019-05-02T04:59:50.753Z,28.43
2019-05-02T05:02:29.868Z,29.40
2019-05-02T05:04:52.962Z,26.77
2019-05-02T05:07:22.734Z,29.53
2019-05-02T05:09:58.241Z,27.47
2019-05-02T05:12:23.394Z,28.23
2019-05-02T05:14:53.247Z,30.40
2019-05-02T05:17:25.062Z,28.37
2019-05-02T05:19:53.882Z,30.37
2019-05-02T05:22:23.703Z,30.30
2019-05-02T05:25:00.050Z,30.03
2019-05-02T05:27:29.539Z,31.37
2019-05-02T05:30:07.495Z,31.63
2019-05-02T05:32:30.212Z,31.77
2019-05-02T05:35:03.435Z,33.00
2019-05-02T05:37:31.314Z,33.67
2019-05-02T05:40:00.811Z,33.13
2019-05-02T05:42:33.365Z,33.90
2019-05-02T05:45:03.698Z,36.43
2019-05-02T05:47:32.625Z,35.83
2019-05-02T05:50:02.552Z,38.83
2019-05-02T05:52:33.203Z,42.73
2019-05-02T05:55:04.908Z,42.43
2019-05-02T05:57:34.693Z,37.67
2019-05-02T06:00:11.491Z,38.00
2019-05-02T06:02:50.924Z,42.20
2019-05-02T06:05:08.007Z,37.90
2019-05-02T06:07:41.814Z,39.13
2019-05-02T06:10:09.933Z,39.40
2019-05-02T06:12:39.594Z,40.27
2019-05-02T06:15:09.282Z,38.60
2019-05-02T06:17:38.806Z,42.20
2019-05-02T06:20:08.494Z,40.57
2019-05-02T06:22:38.027Z,40.10
2019-05-02T06:25:09.774Z,41.83
2019-05-02T06:27:39.714Z,41.33
2019-05-02T06:30:10.023Z,38.93
2019-05-02T06:32:39.830Z,42.70
2019-05-02T06:35:09.557Z,39.93
2019-05-02T06:37:40.735Z,40.83
2019-05-02T06:40:10.547Z,39.50
2019-05-02T06:42:40.053Z,40.10
2019-05-02T06:45:10.586Z,40.63
2019-05-02T06:47:41.853Z,41.80
2019-05-02T06:50:11.346Z,37.80
2019-05-02T06:52:40.974Z,39.73
2019-05-02T06:55:10.583Z,40.10
2019-05-02T06:57:40.111Z,37.80
2019-05-02T07:00:10.845Z,38.23
2019-05-02T07:02:40.650Z,39.20
2019-05-02T07:05:10.471Z,36.47
2019-05-02T07:07:39.970Z,38.27
2019-05-02T07:10:09.862Z,39.20
2019-05-02T07:12:39.349Z,37.27
2019-05-02T07:15:24.273Z,37.80
2019-05-02T07:17:56.274Z,36.83
2019-05-02T07:20:25.775Z,40.17
2019-05-02T07:22:55.398Z,38.70
2019-05-02T07:25:25.058Z,36.93
2019-05-02T07:27:54.890Z,36.97
2019-05-02T07:30:24.531Z,36.27
2019-05-02T07:32:56.371Z,37.07
2019-05-02T07:35:25.982Z,35.10
2019-05-02T07:37:55.470Z,35.57
2019-05-02T07:40:25.354Z,35.57
2019-05-02T07:42:55.026Z,37.50
2019-05-02T07:45:24.543Z,38.57
2019-05-02T07:47:54.075Z,34.80
2019-05-02T07:50:23.566Z,34.53
2019-05-02T07:52:53.100Z,35.67
2019-05-02T07:55:22.890Z,36.03
2019-05-02T07:57:52.807Z,37.43
2019-05-02T08:00:22.607Z,35.67
2019-05-02T08:02:52.150Z,35.90
2019-05-02T08:05:23.829Z,37.37
2019-05-02T08:07:55.040Z,35.97
2019-05-02T08:10:24.362Z,36.07
2019-05-02T08:12:54.265Z,35.63
2019-05-02T08:15:24.771Z,36.90
2019-05-02T08:17:55.278Z,37.70
2019-05-02T08:20:24.923Z,37.27
2019-05-02T08:22:54.456Z,35.17
2019-05-02T08:25:23.979Z,35.93
2019-05-02T08:28:18.446Z,33.60
2019-05-02T08:30:52.710Z,35.03
2019-05-02T08:33:22.322Z,36.63
2019-05-02T08:35:51.824Z,36.10
2019-05-02T08:38:21.421Z,36.50
2019-05-02T08:40:50.917Z,36.00
2019-05-02T08:43:20.763Z,35.57
2019-05-02T08:45:50.273Z,36.67
2019-05-02T08:48:22.497Z,37.73
2019-05-02T08:50:50.948Z,36.93
2019-05-02T08:53:22.268Z,37.90
2019-05-02T08:55:51.624Z,37.17
2019-05-02T08:58:21.564Z,36.60
2019-05-02T09:00:51.079Z,36.00
2019-05-02T09:03:20.750Z,35.07
2019-05-02T09:05:50.250Z,37.20
2019-05-02T09:08:19.751Z,34.67
2019-05-02T09:10:49.283Z,36.10
2019-05-02T09:13:26.410Z,35.70
2019-05-02T09:15:52.011Z,35.87
2019-05-02T09:18:22.286Z,37.57
2019-05-02T09:20:56.356Z,35.20
2019-05-02T09:23:27.549Z,36.47
2019-05-02T09:25:54.649Z,38.37
2019-05-02T09:28:25.490Z,36.30
2019-05-02T09:30:57.390Z,38.20
2019-05-02T09:33:26.365Z,37.87
2019-05-02T09:35:55.866Z,37.30
2019-05-02T09:38:25.400Z,39.40
2019-05-02T09:40:56.332Z,38.63
2019-05-02T09:43:29.227Z,37.50
2019-05-02T09:45:57.538Z,38.27
2019-05-02T09:48:27.067Z,38.50
2019-05-02T09:50:58.160Z,36.53
2019-05-02T09:53:27.927Z,36.50
2019-05-02T09:55:58.164Z,36.23
2019-05-02T09:58:27.824Z,37.97
2019-05-02T10:01:05.739Z,36.90
2019-05-02T10:03:35.394Z,37.20
2019-05-02T10:06:08.256Z,36.57
2019-05-02T10:08:38.220Z,35.50
2019-05-02T10:11:07.442Z,34.90
2019-05-02T10:13:36.947Z,37.77
2019-05-02T10:16:07.246Z,37.17
2019-05-02T10:18:37.627Z,35.83
2019-05-02T10:21:12.619Z,36.43
2019-05-02T10:23:39.866Z,35.40
2019-05-02T10:26:12.923Z,36.80
2019-05-02T10:28:41.857Z,37.77
2019-05-02T10:31:12.711Z,35.80
2019-05-02T10:33:42.878Z,37.67
2019-05-02T10:36:20.112Z,37.50
2019-05-02T10:38:43.798Z,36.47
2019-05-02T10:41:13.327Z,35.20
2019-05-02T10:43:46.930Z,36.93
2019-05-02T10:46:36.051Z,37.83
2019-05-02T10:49:23.746Z,35.40
2019-05-02T10:51:53.889Z,36.50
2019-05-02T10:54:27.920Z,37.23
2019-05-02T10:56:54.738Z,35.70
2019-05-02T10:59:24.267Z,33.60
2019-05-02T11:02:03.251Z,31.87
2019-05-02T11:04:34.554Z,30.70
2019-05-02T11:07:04.067Z,31.30
2019-05-02T11:09:33.571Z,31.80
2019-05-02T11:12:04.762Z,33.60
2019-05-02T11:14:59.355Z,33.20
2019-05-02T11:17:42.219Z,29.53
2019-05-02T11:20:12.464Z,31.57
2019-05-02T11:22:42.754Z,31.00
2019-05-02T11:25:12.413Z,31.40
2019-05-02T11:27:41.984Z,30.87
2019-05-02T11:30:12.280Z,29.03
2019-05-02T11:32:43.283Z,32.80
2019-05-02T11:35:12.769Z,31.13
2019-05-02T11:37:42.336Z,31.83
2019-05-02T11:40:12.862Z,30.40
2019-05-02T11:42:42.529Z,32.70
2019-05-02T11:45:12.254Z,31.83
2019-05-02T11:47:42.308Z,31.50
2019-05-02T11:50:12.091Z,29.30
2019-05-02T11:52:42.547Z,30.10
2019-05-02T11:55:12.907Z,26.53
2019-05-02T11:57:42.769Z,28.43
2019-05-02T12:00:12.617Z,26.50
2019-05-02T12:02:59.717Z,31.60
2019-05-02T12:05:39.003Z,28.03
2019-05-02T12:08:09.321Z,29.77
2019-05-02T12:10:38.687Z,29.47
2019-05-02T12:13:11.882Z,30.27
2019-05-02T12:15:42.149Z,30.20
2019-05-02T12:18:12.102Z,30.00
2019-05-02T12:20:42.576Z,30.53
2019-05-02T12:23:12.978Z,32.77
2019-05-02T12:25:42.702Z,33.77
2019-05-02T12:28:12.648Z,33.20
2019-05-02T12:30:42.198Z,31.70
2019-05-02T12:33:12.747Z,30.73
2019-05-02T12:35:43.218Z,27.37
2019-05-02T12:38:12.978Z,29.00
2019-05-02T12:40:42.626Z,27.40
2019-05-02T12:43:12.249Z,27.27
2019-05-02T12:45:42.290Z,28.30
2019-05-02T12:48:12.983Z,28.77
2019-05-02T12:50:42.711Z,27.30
2019-05-02T12:53:12.757Z,29.10
2019-05-02T12:55:42.734Z,28.40
2019-05-02T12:58:12.639Z,32.53
2019-05-02T13:00:43.101Z,33.93
2019-05-02T13:03:31.787Z,36.23
2019-05-02T13:06:02.999Z,33.60
2019-05-02T13:08:34.282Z,36.67
2019-05-02T13:11:28.303Z,39.00
2019-05-02T13:13:57.902Z,41.30
2019-05-02T13:16:27.430Z,43.30
2019-05-02T13:18:57.318Z,48.93
2019-05-02T13:21:41.480Z,46.80
2019-05-02T13:24:29.235Z,40.17
2019-05-02T13:26:59.376Z,38.60
2019-05-02T13:29:28.391Z,41.97
2019-05-02T13:32:17.409Z,41.70
2019-05-02T13:34:54.085Z,43.00
2019-05-02T13:37:22.561Z,45.67
2019-05-02T13:40:04.009Z,44.37
2019-05-02T13:42:33.903Z,46.13
2019-05-02T13:45:25.343Z,45.73
2019-05-02T13:47:55.154Z,46.53
2019-05-02T13:50:24.652Z,46.67
2019-05-02T13:52:57.896Z,47.27
2019-05-02T13:55:31.758Z,48.03
2019-05-02T13:58:02.357Z,48.20
2019-05-02T14:00:42.433Z,45.43
2019-05-02T14:03:12.335Z,49.87
2019-05-02T14:05:49.316Z,49.70
2019-05-02T14:08:27.510Z,51.70
2019-05-02T14:11:02.174Z,47.33
2019-05-02T14:13:31.701Z,46.40
2019-05-02T14:16:02.271Z,48.07
2019-05-02T14:18:33.583Z,49.80
2019-05-02T14:21:03.595Z,48.97
2019-05-02T14:23:33.106Z,38.03
2019-05-02T14:26:02.610Z,33.27
2019-05-02T14:28:36.132Z,30.57
2019-05-02T14:31:03.694Z,22.33
2019-05-02T14:33:34.786Z,19.67
2019-05-02T14:36:04.620Z,15.80
2019-05-02T14:38:34.159Z,16.63
2019-05-02T14:41:14.665Z,15.53
2019-05-02T14:43:53.220Z,14.40
2019-05-02T14:46:28.964Z,15.13
2019-05-02T14:48:56.375Z,16.43
2019-05-02T14:51:27.758Z,16.00
2019-05-02T14:54:02.537Z,18.20
2019-05-02T14:56:59.362Z,18.50
2019-05-02T14:59:29.093Z,16.47
2019-05-02T15:02:05.670Z,16.30
2019-05-02T15:04:32.324Z,14.63
2019-05-02T15:07:02.176Z,13.80
2019-05-02T15:09:35.713Z,13.70
2019-05-02T15:12:14.130Z,14.77
2019-05-02T15:14:36.098Z,13.47
2019-05-02T15:17:06.868Z,11.43
2019-05-02T15:19:36.378Z,12.73
2019-05-02T15:22:06.369Z,11.47
2019-05-02T15:24:37.908Z,12.30
2019-05-02T15:27:11.957Z,13.53
2019-05-02T15:29:38.519Z,14.30
2019-05-02T15:32:37.178Z,15.70
2019-05-02T15:35:32.327Z,14.87
2019-05-02T15:38:06.574Z,16.07
2019-05-02T15:40:43.169Z,16.10
2019-05-02T15:43:09.180Z,16.57
2019-05-02T15:45:36.656Z,16.40
2019-05-02T15:48:07.298Z,16.10
2019-05-02T15:50:43.616Z,17.33
2019-05-02T15:53:16.987Z,17.80
2019-05-02T15:55:46.850Z,17.63
2019-05-02T15:58:25.616Z,17.97
2019-05-02T16:01:01.759Z,19.90
2019-05-02T16:03:45.883Z,18.93
2019-05-02T16:06:16.596Z,20.03
2019-05-02T16:08:47.806Z,20.90
2019-05-02T16:11:18.418Z,20.10
2019-05-02T16:13:52.566Z,22.03
2019-05-02T16:16:21.960Z,22.37
2019-05-02T16:18:52.595Z,21.07
2019-05-02T16:21:30.602Z,20.97
2019-05-02T16:24:17.824Z,22.73
2019-05-02T16:26:47.316Z,21.70
2019-05-02T16:29:23.419Z,22.90
2019-05-02T16:32:05.282Z,22.80
2019-05-02T16:34:36.322Z,24.40
2019-05-02T16:37:15.011Z,24.43
2019-05-02T16:39:42.538Z,25.00
2019-05-02T16:42:13.238Z,25.27
2019-05-02T16:44:43.064Z,26.37
2019-05-02T16:47:13.938Z,25.87
2019-05-02T16:49:47.826Z,24.37
2019-05-02T16:52:16.141Z,26.67
2019-05-02T16:54:45.778Z,26.70
2019-05-02T16:57:17.304Z,27.20
2019-05-02T16:59:47.286Z,27.83
2019-05-02T17:02:17.198Z,26.20
2019-05-02T17:04:47.074Z,28.17
2019-05-02T17:07:22.124Z,28.73
2019-05-02T17:09:59.291Z,32.43
2019-05-02T17:12:29.171Z,28.07
2019-05-02T17:15:16.410Z,29.77
2019-05-02T17:17:45.951Z,27.73
2019-05-02T17:20:16.727Z,27.30
2019-05-02T17:22:50.210Z,24.17
2019-05-02T17:25:18.081Z,27.60
2019-05-02T17:27:47.603Z,30.23
2019-05-02T17:30:18.098Z,27.37
2019-05-02T17:32:47.993Z,27.03
2019-05-02T17:35:22.039Z,26.90
2019-05-02T17:37:52.409Z,27.07
2019-05-02T17:40:25.966Z,27.07
2019-05-02T17:42:57.137Z,26.87
2019-05-02T17:45:24.654Z,25.87
2019-05-02T17:47:54.175Z,26.40
2019-05-02T17:50:49.473Z,25.33
2019-05-02T17:53:17.162Z,23.60
2019-05-02T17:55:46.750Z,21.80
2019-05-02T17:58:16.708Z,18.80
2019-05-02T18:00:54.506Z,17.90
2019-05-02T18:03:24.172Z,15.67
2019-05-02T18:05:52.890Z,15.27
2019-05-02T18:08:22.619Z,14.97
2019-05-02T18:10:58.630Z,11.50
2019-05-02T18:13:23.291Z,12.00
2019-05-02T18:15:53.458Z,11.80
2019-05-02T18:18:23.616Z,10.80
2019-05-02T18:20:53.151Z,10.67
2019-05-02T18:23:25.764Z,10.40
2019-05-02T18:25:57.513Z,8.60
2019-05-02T18:28:26.323Z,7.13
2019-05-02T18:30:57.324Z,7.40
2019-05-02T18:33:27.307Z,6.93
2019-05-02T18:35:56.822Z,7.10
2019-05-02T18:38:26.317Z,6.70
2019-05-02T18:41:00.238Z,7.00
2019-05-02T18:43:27.511Z,6.63
2019-05-02T18:45:58.103Z,7.20
2019-05-02T18:48:28.435Z,5.73
2019-05-02T18:50:57.954Z,5.90
2019-05-02T18:53:27.544Z,5.47
2019-05-02T18:56:01.635Z,6.33
2019-05-02T18:58:28.407Z,3.93
2019-05-02T19:00:57.946Z,3.83
2019-05-02T19:03:27.990Z,4.17
2019-05-02T19:05:58.490Z,4.00
2019-05-02T19:08:32.186Z,3.97
2019-05-02T19:11:08.979Z,3.67
2019-05-02T19:13:37.575Z,3.90
2019-05-02T19:16:04.496Z,4.20
2019-05-02T19:18:34.450Z,3.90
2019-05-02T19:21:05.286Z,4.37
2019-05-02T19:23:36.312Z,3.70
2019-05-02T19:26:12.516Z,4.07
2019-05-02T19:29:13.224Z,4.87
2019-05-02T19:31:47.963Z,4.70
2019-05-02T19:34:25.072Z,4.17
2019-05-02T19:36:48.958Z,3.80
2019-05-02T19:39:18.549Z,4.33
2019-05-02T19:41:48.439Z,4.70
2019-05-02T19:44:21.384Z,3.63
2019-05-02T19:46:49.107Z,3.87
2019-05-02T19:49:18.626Z,3.70
2019-05-02T19:51:50.477Z,4.67
2019-05-02T19:54:19.370Z,4.10
2019-05-02T19:56:49.236Z,3.70
2019-05-02T19:59:24.650Z,4.30
2019-05-02T20:01:52.017Z,4.13
2019-05-02T20:04:22.208Z,3.90
2019-05-02T20:06:52.018Z,3.83
2019-05-02T20:09:21.515Z,3.47
2019-05-02T20:11:52.080Z,3.57
2019-05-02T20:14:21.903Z,3.50
2019-05-02T20:16:54.173Z,3.80
2019-05-02T20:19:26.962Z,3.80
2019-05-02T20:22:22.269Z,3.40
2019-05-02T20:25:03.137Z,3.57
2019-05-02T20:27:32.975Z,4.00
2019-05-02T20:30:03.023Z,4.10
2019-05-02T20:32:32.655Z,3.73
2019-05-02T20:35:02.154Z,5.10
2019-05-02T20:37:32.458Z,5.27
2019-05-02T20:40:02.826Z,4.73
2019-05-02T20:42:32.578Z,6.20
2019-05-02T20:45:02.384Z,5.63
2019-05-02T20:47:32.091Z,4.97
2019-05-02T20:50:02.656Z,5.47
2019-05-02T20:52:32.965Z,5.10
2019-05-02T20:55:02.474Z,5.20
2019-05-02T20:57:31.950Z,5.80
2019-05-02T21:00:01.857Z,5.50
2019-05-02T21:02:31.846Z,5.53
2019-05-02T21:05:02.711Z,5.70
2019-05-02T21:07:54.384Z,6.27
2019-05-02T21:10:29.966Z,5.40
2019-05-02T21:12:59.607Z,5.83
2019-05-02T21:15:29.129Z,5.93
2019-05-02T21:17:58.598Z,5.70
2019-05-02T21:20:28.230Z,6.30
2019-05-02T21:22:57.715Z,4.70
2019-05-02T21:25:27.229Z,5.40
2019-05-02T21:27:56.726Z,5.47
2019-05-02T21:30:28.187Z,6.10
2019-05-02T21:32:58.001Z,4.57
2019-05-02T21:35:27.896Z,4.77
2019-05-02T21:37:57.438Z,5.70
2019-05-02T21:40:27.270Z,4.60
2019-05-02T21:42:56.758Z,5.40
2019-05-02T21:45:26.275Z,5.07
2019-05-02T21:47:55.796Z,4.83
2019-05-02T21:50:50.515Z,5.23
2019-05-02T21:53:29.614Z,5.07
2019-05-02T21:56:08.123Z,4.93
2019-05-02T21:58:37.747Z,4.80
2019-05-02T22:01:10.410Z,4.80
2019-05-02T22:03:40.936Z,4.93
2019-05-02T22:06:12.280Z,4.90
2019-05-02T22:08:42.026Z,4.90
2019-05-02T22:11:12.217Z,5.00
2019-05-02T22:13:42.441Z,5.80
2019-05-02T22:16:12.973Z,5.33
2019-05-02T22:18:42.829Z,6.90
2019-05-02T22:21:12.778Z,5.67
2019-05-02T22:23:42.651Z,5.50
2019-05-02T22:26:12.703Z,6.03
2019-05-02T22:28:42.472Z,6.00
2019-05-02T22:31:12.457Z,6.40
2019-05-02T22:33:44.573Z,6.33
2019-05-02T22:36:13.242Z,6.53
2019-05-02T22:38:52.764Z,6.43
2019-05-02T22:41:22.369Z,6.20
2019-05-02T22:43:51.866Z,7.20
2019-05-02T22:46:39.182Z,6.50
2019-05-02T22:49:08.702Z,6.73
2019-05-02T22:51:38.258Z,6.97
2019-05-02T22:54:07.755Z,7.20
2019-05-02T22:56:37.246Z,7.17
2019-05-02T22:59:06.955Z,7.00
2019-05-02T23:01:36.554Z,6.77
2019-05-02T23:04:06.211Z,6.37
2019-05-02T23:06:35.835Z,6.90
2019-05-02T23:09:07.514Z,7.23
2019-05-02T23:11:37.158Z,8.10
2019-05-02T23:14:06.982Z,7.97
2019-05-02T23:16:36.479Z,7.33
2019-05-02T23:19:06.082Z,8.13
2019-05-02T23:21:35.986Z,8.10
2019-05-02T23:24:11.747Z,8.50
2019-05-02T23:26:53.849Z,8.67
2019-05-02T23:29:23.353Z,7.93
2019-05-02T23:31:52.870Z,9.00
2019-05-02T23:34:23.632Z,8.67
2019-05-02T23:36:53.184Z,7.90
2019-05-02T23:39:22.658Z,9.20
2019-05-02T23:41:52.474Z,8.13
2019-05-02T23:44:22.825Z,8.93
2019-05-02T23:46:52.497Z,8.90
2019-05-02T23:49:22.138Z,9.70
2019-05-02T23:51:51.903Z,8.50
2019-05-02T23:54:22.034Z,8.50
2019-05-02T23:56:51.620Z,8.63
2019-05-02T23:59:22.359Z,8.70
